Skip to main content.
 TIME   TEMPERATURE   WINDSPEED   DIRECTION   HUMIDITY   BAROMETER   RAINFALL 
19:35 19.0°C (66.2°F) 7.4 kmh (4.6 mph) S 72% 1014.9hPa (29.97 inHg) 0.0mm (0.00 in.)
18:35 19.0°C (66.2 °F) 5.6 kmh (3.5 mph) SSW 72% 1015.9hPa (30.00 inHg) 0.0mm (0.00 in.)
17:35 20.0°C (68.0 °F) 7.4 kmh (4.6 mph) SW 68% 1014.9hPa (29.97 inHg) 0.0mm (0.00 in.)
16:35 21.0°C (69.8 °F) 9.3 kmh (5.8 mph) SW 64% 1014.9hPa (29.97 inHg) 0.0mm (0.00 in.)
15:35 22.0°C (71.6 °F) 11.1 kmh (6.9 mph) SW 60% 1015.9hPa (30.00 inHg) 0.0mm (0.00 in.)
14:35 23.0°C (73.4 °F) 14.8 kmh (9.2 mph) W 56% 1015.9hPa (30.00 inHg) 0.0mm (0.00 in.)
13:35 23.0°C (73.4 °F) 5.6 kmh (3.5 mph) ENE 60% 1016.9hPa (30.03 inHg) 0.0mm (0.00 in.)
12:35 23.0°C (73.4 °F) 11.1 kmh (6.9 mph) ENE 56% 1016.9hPa (30.03 inHg) 0.0mm (0.00 in.)
11:35 23.0°C (73.4 °F) 5.6 kmh (3.5 mph) N 60% 1017.9hPa (30.06 inHg) 0.0mm (0.00 in.)
10:35 22.0°C (71.6 °F) 5.6 kmh (3.5 mph) N 60% 1017.9hPa (30.06 inHg) 0.0mm (0.00 in.)
9:35 21.0°C (69.8 °F) 3.7 kmh (2.3 mph) NW 64% 1017.9hPa (30.06 inHg) 0.0mm (0.00 in.)
8:35 20.0°C (68.0 °F) 3.7 kmh (2.3 mph) NW 72% 1017.9hPa (30.06 inHg) 0.0mm (0.00 in.)
7:35 17.0°C (62.6 °F) 7.4 kmh (4.6 mph) WNW 82% 1017.9hPa (30.06 inHg) 0.0mm (0.00 in.)
6:35 16.0°C (60.8 °F) 7.4 kmh (4.6 mph) WNW 82% 1016.9hPa (30.03 inHg) 0.0mm (0.00 in.)
5:35 17.0°C (62.6 °F) 9.3 kmh (5.8 mph) WNW 77% 1016.9hPa (30.03 inHg) 0.0mm (0.00 in.)
4:35 17.0°C (62.6 °F) 14.8 kmh (9.2 mph) WNW 77% 1016.9hPa (30.03 inHg) 0.0mm (0.00 in.)
3:35 16.0°C (60.8 °F) 13.0 kmh (8.1 mph) NW 82% 1016.9hPa (30.03 inHg) 0.0mm (0.00 in.)
2:35 17.0°C (62.6 °F) 13.0 kmh (8.1 mph) WNW 77% 1017.9hPa (30.06 inHg) 0.0mm (0.00 in.)
1:35 17.0°C (62.6 °F) 9.3 kmh (5.8 mph) NW 72% 1017.9hPa (30.06 inHg) 0.0mm (0.00 in.)
0:35 16.0°C (60.8 °F) 7.4 kmh (4.6 mph) NW 82% 1019.0hPa (30.09 inHg) 0.0mm (0.00 in.)
23:35 17.0°C (62.6 °F) 7.4 kmh (4.6 mph) WSW 77% 1019.0hPa (30.09 inHg) 0.0mm (0.00 in.)
22:35 18.0°C (64.4 °F) 7.4 kmh (4.6 mph) WNW 72% 1019.0hPa (30.09 inHg) 0.0mm (0.00 in.)
21:35 18.0°C (64.4 °F) 11.1 kmh (6.9 mph) WNW 77% 1019.0hPa (30.09 inHg) 0.0mm (0.00 in.)
20:35 18.0°C (64.4 °F) 16.7 kmh (10.4 mph) WNW 77% 1019.0hPa (30.09 inHg) 0.0mm (0.00 in.)